Time;durP1;ratioP1;P1;durP2;ratioP2;P2;SDS_P1;SDS_P2;PMS_P1;PMS_P2;Temp;Humidity;BMP_temperature;BMP_pressure;BME280_temperature;BME280_humidity;BME280_pressure;Samples;Min_cycle;Max_cycle;Signal;HPM_P1;HPM_P2
2023/03/14 00:00:15;;;;;;;39.30;6.28;;;9.40;99.90;;;;;;4972069;28;20133;-58
2023/03/14 00:02:41;;;;;;;32.95;6.43;;;9.40;99.90;;;;;;4971853;28;20185;-57
2023/03/14 00:05:08;;;;;;;30.10;5.97;;;9.50;99.90;;;;;;4972048;28;20428;-57
2023/03/14 00:07:36;;;;;;;30.63;5.45;;;9.40;99.90;;;;;;4971023;28;20049;-57
2023/03/14 00:10:05;;;;;;;33.42;5.70;;;9.50;99.90;;;;;;4964449;28;20049;-57
2023/03/14 00:12:31;;;;;;;34.35;5.47;;;9.50;99.90;;;;;;4967260;28;20057;-58
2023/03/14 00:14:57;;;;;;;31.65;5.05;;;9.50;99.90;;;;;;4970671;28;20066;-57
2023/03/14 00:17:23;;;;;;;27.80;4.97;;;9.60;99.90;;;;;;4970720;28;20642;-57
2023/03/14 00:19:52;;;;;;;31.30;5.55;;;9.60;99.90;;;;;;4977165;28;20046;-57
2023/03/14 00:22:18;;;;;;;28.20;5.75;;;9.60;99.90;;;;;;4958197;28;20105;-58
2023/03/14 00:24:44;;;;;;;29.63;5.40;;;9.60;99.90;;;;;;4973484;28;20908;-58
2023/03/14 00:27:09;;;;;;;30.52;5.35;;;9.60;99.90;;;;;;4972649;28;20104;-57
2023/03/14 00:29:35;;;;;;;26.65;5.68;;;9.60;99.90;;;;;;4975993;28;20058;-57
2023/03/14 00:32:01;;;;;;;25.35;5.13;;;9.60;99.90;;;;;;4969120;28;20056;-58
2023/03/14 00:34:31;;;;;;;24.20;5.15;;;9.50;99.90;;;;;;4975480;28;20049;-57
2023/03/14 00:36:57;;;;;;;30.52;4.95;;;9.60;99.90;;;;;;4971987;28;20081;-58
2023/03/14 00:39:23;;;;;;;28.35;6.07;;;9.60;99.90;;;;;;4969677;28;20054;-57
2023/03/14 00:41:49;;;;;;;21.45;4.97;;;9.50;99.90;;;;;;4947115;28;20042;-58
2023/03/14 00:44:14;;;;;;;29.85;5.55;;;9.50;99.90;;;;;;4970070;28;20096;-57
2023/03/14 00:46:40;;;;;;;23.23;5.10;;;9.50;99.90;;;;;;4956256;28;20085;-56
2023/03/14 00:49:06;;;;;;;33.13;5.40;;;9.50;99.90;;;;;;4973729;28;20054;-58
2023/03/14 00:51:32;;;;;;;24.63;5.35;;;9.50;99.90;;;;;;4971360;28;20050;-57
2023/03/14 00:53:59;;;;;;;26.83;4.50;;;9.50;99.90;;;;;;4972311;28;20061;-58
2023/03/14 00:56:25;;;;;;;28.67;5.22;;;9.50;99.90;;;;;;4970537;28;20050;-58
2023/03/14 00:58:54;;;;;;;22.63;5.05;;;9.50;99.90;;;;;;4970004;28;20420;-57
2023/03/14 01:01:20;;;;;;;26.50;5.15;;;9.50;99.90;;;;;;4952752;28;20050;-57
2023/03/14 01:03:46;;;;;;;29.05;5.32;;;9.50;99.90;;;;;;4971600;28;20074;-56
2023/03/14 01:06:15;;;;;;;24.60;4.90;;;9.50;99.90;;;;;;4972375;28;20050;-57
2023/03/14 01:08:41;;;;;;;21.23;5.50;;;9.60;99.90;;;;;;4970061;28;20054;-56
2023/03/14 01:11:10;;;;;;;23.15;4.57;;;9.50;99.90;;;;;;4966940;28;21376;-57
2023/03/14 01:13:36;;;;;;;35.85;5.78;;;9.50;99.90;;;;;;4970803;28;20053;-58
2023/03/14 01:16:08;;;;;;;26.63;4.82;;;9.50;99.90;;;;;;4968014;28;20050;-58
2023/03/14 01:18:35;;;;;;;22.63;4.50;;;9.60;99.90;;;;;;4946191;28;22015;-58
2023/03/14 01:21:02;;;;;;;18.98;4.25;;;9.60;99.90;;;;;;4968357;28;21173;-57
2023/03/14 01:23:28;;;;;;;26.95;5.22;;;9.60;99.90;;;;;;4974098;28;20042;-58
2023/03/14 01:25:54;;;;;;;22.27;4.57;;;9.70;99.90;;;;;;4984407;28;20042;-55
2023/03/14 01:28:19;;;;;;;21.10;4.13;;;9.70;99.90;;;;;;4981988;28;20078;-55
2023/03/14 01:30:45;;;;;;;21.55;4.85;;;9.70;99.90;;;;;;4979208;28;20100;-58
2023/03/14 01:33:13;;;;;;;20.92;4.88;;;9.70;99.90;;;;;;4967570;28;20370;-57
2023/03/14 01:35:38;;;;;;;19.55;4.25;;;9.80;99.90;;;;;;4983472;28;20049;-58
2023/03/14 01:38:04;;;;;;;24.55;4.47;;;9.80;99.90;;;;;;4980903;28;20058;-55
2023/03/14 01:40:30;;;;;;;21.25;4.45;;;9.80;99.90;;;;;;4982866;28;20053;-58
2023/03/14 01:42:57;;;;;;;19.00;4.38;;;9.80;99.90;;;;;;4981729;28;20046;-57
2023/03/14 01:46:01;;;;;;;24.17;4.53;;;9.80;99.90;;;;;;4981754;28;20050;-57
2023/03/14 01:48:31;;;;;;;26.05;5.15;;;9.80;99.90;;;;;;4982186;28;20038;-57
2023/03/14 01:50:59;;;;;;;22.35;4.05;;;9.90;99.90;;;;;;4982858;28;21626;-57
2023/03/14 01:53:25;;;;;;;20.90;5.10;;;9.90;99.90;;;;;;4980730;28;20046;-58
2023/03/14 01:55:52;;;;;;;20.65;4.00;;;9.90;99.90;;;;;;4971022;28;20077;-58
2023/03/14 01:58:19;;;;;;;17.45;3.50;;;9.90;99.90;;;;;;4972105;28;20042;-57
2023/03/14 02:00:46;;;;;;;15.98;3.67;;;9.90;99.90;;;;;;4971725;28;20061;-58
2023/03/14 02:03:17;;;;;;;25.25;4.22;;;9.90;99.90;;;;;;4950872;28;20078;-57
2023/03/14 02:05:46;;;;;;;15.00;3.00;;;9.90;99.90;;;;;;4970147;28;20050;-58
2023/03/14 02:08:17;;;;;;;16.13;3.17;;;10.00;99.90;;;;;;4971028;28;20315;-57
2023/03/14 02:10:45;;;;;;;18.98;3.92;;;9.90;99.90;;;;;;4947332;28;20386;-58
2023/03/14 02:13:12;;;;;;;17.23;3.28;;;9.90;99.90;;;;;;4968044;28;20503;-57
2023/03/14 02:15:39;;;;;;;19.02;3.72;;;9.90;99.90;;;;;;4950357;28;20090;-58
2023/03/14 02:18:06;;;;;;;19.88;3.45;;;9.80;99.90;;;;;;4971363;28;20061;-57
2023/03/14 02:20:48;;;;;;;17.15;3.28;;;9.80;99.90;;;;;;4972627;28;20137;-57
2023/03/14 02:23:27;;;;;;;16.73;3.13;;;9.80;99.90;;;;;;4976863;28;20081;-56
2023/03/14 02:26:11;;;;;;;13.45;3.63;;;9.70;99.90;;;;;;4971606;28;20125;-56
2023/03/14 02:28:37;;;;;;;16.58;3.75;;;9.70;99.90;;;;;;4971521;28;20058;-57
2023/03/14 02:31:03;;;;;;;14.20;2.88;;;9.70;99.90;;;;;;4971704;28;20105;-57
2023/03/14 02:33:29;;;;;;;16.20;3.00;;;9.70;99.90;;;;;;4953551;28;20053;-58
2023/03/14 02:36:01;;;;;;;13.70;3.08;;;9.70;99.90;;;;;;4977473;28;20461;-58
2023/03/14 02:38:55;;;;;;;13.05;2.72;;;9.70;99.90;;;;;;4974577;28;20080;-58
2023/03/14 02:41:21;;;;;;;19.65;3.70;;;9.60;99.90;;;;;;4972250;28;20620;-58
2023/03/14 02:43:47;;;;;;;13.52;2.67;;;9.60;99.90;;;;;;4953273;28;20054;-58
2023/03/14 02:46:16;;;;;;;21.63;3.33;;;9.70;99.90;;;;;;4941684;28;20050;-55
2023/03/14 02:48:50;;;;;;;14.88;2.72;;;9.60;99.90;;;;;;4973455;28;20389;-55
2023/03/14 02:51:16;;;;;;;19.08;3.42;;;9.50;99.90;;;;;;4972441;28;20050;-57
2023/03/14 02:53:42;;;;;;;18.73;3.45;;;9.50;99.90;;;;;;4975721;28;20556;-57
2023/03/14 02:56:10;;;;;;;18.55;3.33;;;9.50;99.90;;;;;;4974778;28;20058;-57
2023/03/14 02:58:36;;;;;;;15.85;3.45;;;9.50;99.90;;;;;;4978720;28;20050;-58
2023/03/14 03:01:02;;;;;;;16.30;2.95;;;9.50;99.90;;;;;;4972655;28;20053;-57
2023/03/14 03:03:28;;;;;;;16.77;2.88;;;9.40;99.90;;;;;;4971129;28;20455;-57
2023/03/14 03:05:55;;;;;;;13.93;3.47;;;9.40;99.90;;;;;;4956231;28;20034;-58
2023/03/14 03:08:24;;;;;;;14.38;3.38;;;9.40;99.90;;;;;;4975095;28;20543;-56
2023/03/14 03:10:50;;;;;;;11.85;3.30;;;9.40;99.90;;;;;;4971268;28;20177;-57
2023/03/14 03:13:17;;;;;;;13.90;3.55;;;9.40;99.90;;;;;;4970182;28;20574;-57
2023/03/14 03:15:43;;;;;;;15.90;2.95;;;9.40;99.90;;;;;;4970742;28;20061;-58
2023/03/14 03:18:09;;;;;;;14.23;4.05;;;9.40;99.90;;;;;;4970770;28;20085;-57
2023/03/14 03:20:35;;;;;;;16.05;3.50;;;9.30;99.90;;;;;;4972079;28;20248;-57
2023/03/14 03:23:01;;;;;;;12.43;3.53;;;9.30;99.90;;;;;;4959353;28;20585;-58
2023/03/14 03:25:28;;;;;;;15.23;3.72;;;9.30;99.90;;;;;;4982330;28;21262;-58
2023/03/14 03:27:53;;;;;;;14.68;3.55;;;9.20;99.90;;;;;;4981345;28;20509;-57
2023/03/14 03:30:20;;;;;;;19.67;3.80;;;9.20;99.90;;;;;;4982904;28;20046;-57
2023/03/14 03:32:46;;;;;;;15.52;4.25;;;9.20;99.90;;;;;;4986017;28;20050;-58
2023/03/14 03:35:12;;;;;;;13.30;3.80;;;9.20;99.90;;;;;;4987447;28;20053;-57
2023/03/14 03:37:38;;;;;;;17.65;4.30;;;9.10;99.90;;;;;;4985397;28;20046;-58
2023/03/14 03:40:05;;;;;;;13.48;3.97;;;9.10;99.90;;;;;;4949075;28;20057;-58
2023/03/14 03:42:32;;;;;;;16.20;3.70;;;9.10;99.90;;;;;;4967280;28;20061;-57
2023/03/14 03:44:58;;;;;;;14.77;3.80;;;9.10;99.90;;;;;;4957060;28;20042;-57
2023/03/14 03:47:24;;;;;;;15.02;3.95;;;9.00;99.90;;;;;;4987186;28;20123;-57
2023/03/14 03:49:50;;;;;;;17.70;3.60;;;9.00;99.90;;;;;;4968199;28;20058;-57
2023/03/14 03:52:16;;;;;;;16.10;3.80;;;9.10;99.90;;;;;;4985737;28;20046;-57
2023/03/14 03:54:42;;;;;;;19.65;4.07;;;9.00;99.90;;;;;;4974983;28;20046;-57
2023/03/14 03:57:07;;;;;;;20.45;4.55;;;9.10;99.90;;;;;;4973691;28;20046;-57
2023/03/14 03:59:33;;;;;;;24.52;5.10;;;9.00;99.90;;;;;;4972390;28;20054;-57
2023/03/14 04:01:59;;;;;;;18.08;4.13;;;9.10;99.90;;;;;;4952882;28;20468;-57
2023/03/14 04:04:25;;;;;;;20.73;4.32;;;9.10;99.90;;;;;;4953765;28;20405;-58
2023/03/14 04:06:51;;;;;;;23.40;4.55;;;9.10;99.90;;;;;;4974036;28;20050;-57
2023/03/14 04:09:16;;;;;;;24.15;4.93;;;9.00;99.90;;;;;;4973400;28;20813;-57
2023/03/14 04:11:42;;;;;;;24.73;5.35;;;9.00;99.90;;;;;;4973182;28;20068;-57
2023/03/14 04:14:08;;;;;;;28.42;4.80;;;9.00;99.90;;;;;;4968348;28;20053;-57
2023/03/14 04:16:34;;;;;;;23.88;4.47;;;9.00;99.90;;;;;;4970629;28;20058;-57
2023/03/14 04:19:01;;;;;;;20.65;5.00;;;9.00;99.90;;;;;;4968556;28;20504;-57
2023/03/14 04:21:27;;;;;;;27.65;5.53;;;9.00;99.90;;;;;;4970352;28;20046;-58
2023/03/14 04:23:53;;;;;;;26.10;5.03;;;9.00;99.90;;;;;;4975476;28;20121;-58
2023/03/14 04:26:19;;;;;;;31.23;5.70;;;9.00;99.90;;;;;;4972705;28;20579;-57
2023/03/14 04:28:45;;;;;;;25.02;5.68;;;9.00;99.90;;;;;;4971900;28;20136;-57
2023/03/14 04:31:20;;;;;;;19.55;4.78;;;9.00;99.90;;;;;;4936564;28;20039;-57
2023/03/14 04:33:46;;;;;;;28.50;5.50;;;9.00;99.90;;;;;;4969092;28;20548;-57
2023/03/14 04:36:12;;;;;;;26.17;6.00;;;9.00;99.90;;;;;;4972217;28;20046;-57
2023/03/14 04:38:38;;;;;;;23.15;5.15;;;9.00;99.90;;;;;;4969458;28;20050;-58
2023/03/14 04:41:04;;;;;;;27.33;6.22;;;9.00;99.90;;;;;;4951910;28;20084;-58
2023/03/14 04:43:30;;;;;;;17.30;5.47;;;9.00;99.90;;;;;;4968696;28;20054;-56
2023/03/14 04:45:57;;;;;;;25.05;6.32;;;9.00;99.90;;;;;;4929393;28;20053;-57
2023/03/14 04:48:24;;;;;;;23.85;6.18;;;8.90;99.90;;;;;;4952996;28;20049;-57
2023/03/14 04:50:50;;;;;;;21.85;6.05;;;8.90;99.90;;;;;;4971700;28;20049;-58
2023/03/14 04:53:17;;;;;;;21.50;6.55;;;8.90;99.90;;;;;;4954218;28;20046;-57
2023/03/14 04:55:50;;;;;;;21.30;6.38;;;8.90;99.90;;;;;;4967985;28;20042;-57
2023/03/14 04:58:16;;;;;;;22.30;6.40;;;8.90;99.90;;;;;;4968962;28;20046;-58
2023/03/14 05:00:42;;;;;;;24.40;7.30;;;8.90;99.90;;;;;;4952767;28;22358;-58
2023/03/14 05:03:08;;;;;;;18.65;6.63;;;8.80;99.90;;;;;;4970732;28;20049;-57
2023/03/14 05:05:34;;;;;;;21.27;7.85;;;8.90;99.90;;;;;;4972163;28;20077;-58
2023/03/14 05:07:59;;;;;;;22.92;7.55;;;8.90;99.90;;;;;;4971771;28;20046;-58
2023/03/14 05:10:25;;;;;;;21.50;7.03;;;8.90;99.90;;;;;;4950986;28;20089;-57
2023/03/14 05:12:51;;;;;;;17.70;7.28;;;8.90;99.90;;;;;;4979232;28;20129;-57
2023/03/14 05:15:17;;;;;;;17.60;7.57;;;8.80;99.90;;;;;;4974272;28;20509;-57
2023/03/14 05:17:43;;;;;;;18.98;7.40;;;8.80;99.90;;;;;;4975018;28;20097;-58
2023/03/14 05:20:09;;;;;;;17.23;7.10;;;8.80;99.90;;;;;;4972168;28;22246;-57
2023/03/14 05:22:35;;;;;;;17.58;7.60;;;8.80;99.90;;;;;;4952791;28;20054;-58
2023/03/14 05:25:01;;;;;;;15.73;6.57;;;8.80;99.90;;;;;;4976635;28;20504;-57
2023/03/14 05:27:27;;;;;;;15.00;6.80;;;8.80;99.90;;;;;;4961563;28;20050;-57
2023/03/14 05:29:53;;;;;;;13.57;6.18;;;8.80;99.90;;;;;;4962091;28;20421;-57
2023/03/14 05:32:18;;;;;;;16.73;6.10;;;8.80;99.90;;;;;;4981804;28;20042;-57
2023/03/14 05:34:44;;;;;;;7.13;4.80;;;8.80;99.90;;;;;;4967046;28;20082;-57
2023/03/14 05:37:10;;;;;;;13.38;4.70;;;8.80;99.90;;;;;;4981634;28;20054;-56
2023/03/14 05:39:36;;;;;;;9.48;4.63;;;8.80;99.90;;;;;;4962069;28;20081;-58
2023/03/14 05:42:02;;;;;;;12.23;5.20;;;8.80;99.90;;;;;;4966506;28;20061;-57
2023/03/14 05:44:27;;;;;;;10.07;5.43;;;8.80;99.90;;;;;;4985209;28;20053;-55
2023/03/14 05:46:53;;;;;;;15.77;5.63;;;8.80;99.90;;;;;;4981975;28;20161;-57
2023/03/14 05:49:19;;;;;;;14.20;5.32;;;8.80;99.90;;;;;;4961591;28;20501;-57
2023/03/14 05:51:45;;;;;;;9.90;4.72;;;8.80;99.90;;;;;;4981832;28;20169;-57
2023/03/14 05:54:11;;;;;;;8.55;3.85;;;8.80;99.90;;;;;;4961557;28;20042;-57
2023/03/14 05:56:36;;;;;;;10.23;4.18;;;8.70;99.90;;;;;;4957108;28;20457;-57
2023/03/14 05:59:03;;;;;;;9.40;3.80;;;8.70;99.90;;;;;;4961592;28;20409;-57
2023/03/14 06:01:29;;;;;;;8.60;4.00;;;8.70;99.90;;;;;;4971929;28;20137;-57
2023/03/14 06:03:55;;;;;;;9.50;3.90;;;8.80;99.90;;;;;;4946206;28;20128;-58
2023/03/14 06:06:21;;;;;;;7.20;3.40;;;8.80;99.90;;;;;;4966853;28;20053;-57
2023/03/14 06:08:47;;;;;;;7.55;3.58;;;8.70;99.90;;;;;;4971630;28;20821;-57
2023/03/14 06:11:12;;;;;;;9.27;3.30;;;8.70;99.90;;;;;;4968028;28;20042;-57
2023/03/14 06:13:39;;;;;;;8.15;3.50;;;8.80;99.90;;;;;;4974093;28;20069;-58
2023/03/14 06:16:06;;;;;;;6.85;3.10;;;8.80;99.90;;;;;;4968218;28;20054;-58
2023/03/14 06:18:31;;;;;;;6.82;3.25;;;8.80;99.90;;;;;;4953925;28;20101;-57
2023/03/14 06:20:57;;;;;;;8.05;3.30;;;8.80;99.90;;;;;;4971368;28;20046;-56
2023/03/14 06:23:24;;;;;;;7.15;3.00;;;8.80;99.90;;;;;;4971611;28;20069;-57
2023/03/14 06:25:50;;;;;;;6.15;1.23;;;8.80;99.90;;;;;;4955324;28;20042;-58
2023/03/14 06:28:16;;;;;;;3.90;0.98;;;8.70;99.90;;;;;;4969267;28;20047;-58
2023/03/14 06:30:42;;;;;;;7.05;1.80;;;8.50;99.90;;;;;;4974911;28;20050;-58
2023/03/14 06:33:08;;;;;;;8.73;1.80;;;8.30;99.90;;;;;;4936205;28;20177;-58
2023/03/14 06:35:33;;;;;;;18.00;2.28;;;8.10;99.90;;;;;;4971371;28;20046;-58
2023/03/14 06:37:59;;;;;;;12.77;1.98;;;7.90;99.90;;;;;;4967797;28;20403;-58
2023/03/14 06:40:25;;;;;;;18.73;2.35;;;7.70;99.90;;;;;;4955326;28;20058;-58
2023/03/14 06:42:51;;;;;;;19.85;3.05;;;7.60;99.90;;;;;;4970205;28;20085;-58
2023/03/14 06:45:17;;;;;;;22.60;2.42;;;7.40;99.90;;;;;;4970568;28;20046;-58
2023/03/14 06:47:43;;;;;;;16.50;2.55;;;7.30;99.90;;;;;;4979754;28;20053;-57
2023/03/14 06:50:10;;;;;;;13.23;2.05;;;7.10;99.90;;;;;;4981903;28;20485;-57
2023/03/14 06:52:36;;;;;;;12.90;1.70;;;6.80;99.90;;;;;;4962879;28;20049;-57
2023/03/14 06:55:02;;;;;;;19.30;2.30;;;6.50;99.90;;;;;;4963469;28;20156;-58
2023/03/14 06:57:28;;;;;;;11.45;1.88;;;6.30;99.90;;;;;;4984904;28;20133;-57
2023/03/14 06:59:53;;;;;;;13.68;1.85;;;6.00;99.90;;;;;;4985998;28;20129;-58
2023/03/14 07:02:19;;;;;;;16.73;1.92;;;5.90;99.90;;;;;;4980690;28;20101;-54
2023/03/14 07:04:45;;;;;;;15.70;1.65;;;5.70;99.90;;;;;;4978156;28;20046;-53
2023/03/14 07:07:11;;;;;;;20.63;2.00;;;5.70;99.90;;;;;;4975374;28;20424;-55
2023/03/14 07:09:36;;;;;;;12.95;1.77;;;5.60;99.90;;;;;;4981353;28;20054;-53
2023/03/14 07:12:04;;;;;;;24.88;1.77;;;5.40;99.90;;;;;;4984185;28;20046;-54
2023/03/14 07:14:30;;;;;;;8.98;1.20;;;5.40;99.90;;;;;;4985768;28;20100;-52
2023/03/14 07:16:56;;;;;;;6.47;1.13;;;5.30;99.90;;;;;;4980225;28;20058;-52
2023/03/14 07:19:22;;;;;;;5.80;1.15;;;5.20;99.90;;;;;;4954731;28;20057;-54
2023/03/14 07:21:47;;;;;;;10.60;0.85;;;5.00;99.90;;;;;;4955445;28;20054;-54
2023/03/14 07:24:13;;;;;;;6.95;1.05;;;5.00;99.90;;;;;;4978762;28;20053;-52
2023/03/14 07:26:39;;;;;;;5.25;1.00;;;4.90;99.90;;;;;;4982943;28;20049;-54
2023/03/14 07:29:05;;;;;;;3.92;0.80;;;4.80;99.90;;;;;;4958403;28;20045;-53
2023/03/14 07:31:31;;;;;;;6.75;0.70;;;4.80;99.90;;;;;;4973167;28;20485;-52
2023/03/14 07:33:57;;;;;;;5.20;0.77;;;4.70;99.90;;;;;;4984088;28;20038;-54
2023/03/14 07:36:23;;;;;;;2.03;0.63;;;4.70;99.90;;;;;;4981265;28;20528;-52
2023/03/14 07:38:49;;;;;;;2.88;0.68;;;4.60;99.90;;;;;;4960590;28;20093;-53
2023/03/14 07:41:15;;;;;;;2.95;0.90;;;4.60;99.90;;;;;;4980133;28;20046;-52
2023/03/14 07:43:41;;;;;;;9.90;1.25;;;4.60;99.90;;;;;;4962355;28;20030;-54
2023/03/14 07:46:07;;;;;;;8.82;1.25;;;4.60;99.90;;;;;;4979474;28;20062;-53
2023/03/14 07:48:33;;;;;;;8.60;1.38;;;4.60;99.90;;;;;;4981910;28;20058;-52
2023/03/14 07:50:59;;;;;;;3.58;0.73;;;4.60;99.90;;;;;;4976059;28;20050;-53
2023/03/14 07:53:25;;;;;;;10.65;0.85;;;4.60;99.90;;;;;;4978108;28;20057;-54
2023/03/14 07:55:52;;;;;;;6.93;0.93;;;4.60;99.90;;;;;;4967260;28;20728;-51
2023/03/14 07:58:19;;;;;;;4.65;0.82;;;4.60;99.90;;;;;;4967500;28;20454;-51
2023/03/14 08:00:44;;;;;;;7.70;0.85;;;4.60;99.90;;;;;;4947656;28;20042;-53
2023/03/14 08:03:10;;;;;;;7.93;0.90;;;4.60;99.90;;;;;;4965083;28;20141;-55
2023/03/14 08:05:38;;;;;;;8.57;1.08;;;4.70;99.90;;;;;;4972979;28;20646;-51
2023/03/14 08:08:04;;;;;;;6.32;0.90;;;4.70;99.90;;;;;;4969260;28;20053;-52
2023/03/14 08:10:31;;;;;;;4.78;0.95;;;4.70;99.90;;;;;;4969418;28;20050;-53
2023/03/14 08:12:59;;;;;;;9.00;1.20;;;4.80;99.90;;;;;;4968244;28;20108;-53
2023/03/14 08:15:25;;;;;;;8.40;1.20;;;4.80;99.90;;;;;;4968233;28;20414;-54
2023/03/14 08:17:52;;;;;;;7.53;1.10;;;4.80;99.90;;;;;;4970523;28;20054;-53
2023/03/14 08:20:19;;;;;;;6.13;1.00;;;4.90;99.90;;;;;;4954973;28;20052;-54
2023/03/14 08:22:45;;;;;;;7.40;1.20;;;4.90;99.90;;;;;;4974492;28;20186;-54
2023/03/14 08:25:11;;;;;;;5.07;1.00;;;4.90;99.90;;;;;;4972662;28;20921;-51
2023/03/14 08:27:40;;;;;;;9.45;1.00;;;5.00;99.90;;;;;;4968359;28;20049;-54
2023/03/14 08:30:11;;;;;;;5.65;2.05;;;5.00;99.90;;;;;;4965189;28;20050;-53
2023/03/14 08:32:38;;;;;;;7.57;1.70;;;5.10;99.90;;;;;;4968804;28;20622;-53
2023/03/14 08:35:05;;;;;;;10.05;1.70;;;5.10;99.90;;;;;;4971953;28;20581;-54
2023/03/14 08:37:32;;;;;;;17.33;2.08;;;5.20;99.90;;;;;;4952154;28;20073;-54
2023/03/14 08:39:58;;;;;;;14.98;2.20;;;5.20;99.90;;;;;;4973230;28;20050;-53
2023/03/14 08:42:24;;;;;;;16.00;2.42;;;5.30;99.90;;;;;;4972006;28;20492;-53
2023/03/14 08:44:51;;;;;;;16.90;2.70;;;5.40;99.90;;;;;;4955261;28;20050;-53
2023/03/14 08:47:17;;;;;;;17.35;2.17;;;5.40;99.90;;;;;;4971912;28;20092;-54
2023/03/14 08:49:43;;;;;;;21.05;3.00;;;5.50;99.90;;;;;;4969947;28;20539;-54
2023/03/14 08:52:09;;;;;;;16.33;2.20;;;5.60;99.90;;;;;;4967796;28;20112;-52
2023/03/14 08:54:35;;;;;;;19.00;2.65;;;5.60;99.90;;;;;;4975778;28;20054;-53
2023/03/14 08:57:00;;;;;;;14.23;2.28;;;5.60;99.90;;;;;;4969200;28;20050;-52
2023/03/14 08:59:26;;;;;;;16.50;2.80;;;5.70;99.90;;;;;;4950580;28;20050;-52
2023/03/14 09:01:53;;;;;;;18.23;3.10;;;5.80;99.90;;;;;;4965885;28;20559;-54
2023/03/14 09:04:20;;;;;;;18.98;3.40;;;5.80;99.90;;;;;;4959276;28;20042;-53
2023/03/14 09:06:45;;;;;;;17.80;2.85;;;5.90;99.90;;;;;;4951118;28;20049;-54
2023/03/14 09:09:13;;;;;;;33.20;4.05;;;6.00;99.90;;;;;;4966058;28;20078;-51
2023/03/14 09:11:39;;;;;;;24.98;3.35;;;6.10;99.90;;;;;;4967263;28;20104;-51
2023/03/14 09:14:06;;;;;;;27.05;4.18;;;6.30;99.90;;;;;;4970282;28;20084;-55
2023/03/14 09:16:33;;;;;;;37.03;4.10;;;6.40;99.90;;;;;;4940938;28;20140;-53
2023/03/14 09:18:59;;;;;;;29.13;3.40;;;6.50;99.90;;;;;;4951743;28;20046;-54
2023/03/14 09:21:28;;;;;;;27.60;3.08;;;6.50;99.90;;;;;;4972675;28;20049;-53
2023/03/14 09:23:53;;;;;;;21.90;3.50;;;6.50;99.90;;;;;;4956491;28;20054;-52
2023/03/14 09:26:19;;;;;;;31.33;4.22;;;6.50;99.90;;;;;;4979224;28;20057;-52
2023/03/14 09:28:45;;;;;;;24.98;3.72;;;6.40;99.90;;;;;;4982882;28;20050;-50
2023/03/14 09:31:12;;;;;;;23.40;4.68;;;6.40;99.90;;;;;;4981560;28;20054;-51
2023/03/14 09:33:38;;;;;;;20.27;3.70;;;6.40;99.90;;;;;;4981157;28;20057;-49
2023/03/14 09:36:05;;;;;;;16.65;3.05;;;6.40;99.90;;;;;;4979279;28;20172;-52
2023/03/14 09:38:32;;;;;;;15.38;3.13;;;6.30;99.90;;;;;;4913848;28;20188;-53
2023/03/14 09:41:00;;;;;;;20.10;3.72;;;6.30;99.90;;;;;;4980372;28;20129;-49
2023/03/14 09:43:31;;;;;;;23.08;3.15;;;6.20;99.90;;;;;;4979040;28;20083;-50
2023/03/14 09:45:58;;;;;;;24.88;3.60;;;6.20;99.90;;;;;;4983077;28;20050;-52
2023/03/14 09:48:31;;;;;;;20.27;3.45;;;6.20;99.90;;;;;;4966208;28;20058;-51
2023/03/14 09:50:59;;;;;;;21.73;3.60;;;6.30;99.90;;;;;;4984442;28;20057;-52
2023/03/14 09:53:47;;;;;;;24.15;2.92;;;6.30;99.90;;;;;;4976090;28;20124;-48
2023/03/14 09:56:26;;;;;;;19.35;3.55;;;6.30;99.90;;;;;;4965022;28;20042;-53
2023/03/14 09:58:56;;;;;;;29.45;4.03;;;6.40;99.90;;;;;;4965710;28;20038;-55
2023/03/14 10:01:26;;;;;;;21.90;3.30;;;6.30;99.90;;;;;;4974360;28;20042;-52
2023/03/14 10:03:55;;;;;;;22.17;3.30;;;6.30;99.90;;;;;;4951371;28;20053;-51
2023/03/14 10:06:23;;;;;;;22.60;3.58;;;6.30;99.90;;;;;;4974703;28;21541;-52
2023/03/14 10:08:49;;;;;;;25.02;3.92;;;6.30;99.90;;;;;;4953758;28;20481;-49
2023/03/14 10:11:16;;;;;;;21.48;3.65;;;6.30;99.90;;;;;;4949845;28;20054;-51
2023/03/14 10:14:11;;;;;;;23.05;3.67;;;6.40;99.90;;;;;;4968306;28;20050;-52
2023/03/14 10:16:42;;;;;;;22.83;3.67;;;6.40;99.90;;;;;;4966824;28;20062;-51
2023/03/14 10:19:14;;;;;;;24.13;2.88;;;6.50;99.90;;;;;;4976050;28;20061;-50
2023/03/14 10:21:43;;;;;;;18.88;3.17;;;6.60;99.90;;;;;;4974162;28;20366;-53
2023/03/14 10:24:18;;;;;;;13.60;2.50;;;6.70;99.90;;;;;;4970421;28;20792;-53
2023/03/14 10:26:48;;;;;;;24.42;3.22;;;6.70;99.90;;;;;;4970252;28;20052;-49
2023/03/14 10:29:15;;;;;;;19.80;3.78;;;6.70;99.90;;;;;;4968865;28;20054;-51
2023/03/14 10:31:50;;;;;;;20.05;2.58;;;6.60;99.90;;;;;;4952698;28;20042;-55
2023/03/14 10:34:22;;;;;;;19.83;2.90;;;6.60;99.90;;;;;;4969922;28;21617;-51
2023/03/14 10:36:54;;;;;;;22.23;2.65;;;6.60;99.90;;;;;;4976650;28;20077;-53
2023/03/14 10:39:31;;;;;;;27.15;2.53;;;6.60;99.90;;;;;;4961277;28;20058;-55
2023/03/14 10:42:23;;;;;;;14.90;2.40;;;6.60;99.90;;;;;;4972298;28;20093;-55
2023/03/14 10:44:59;;;;;;;18.25;2.70;;;6.70;99.90;;;;;;4956201;28;20054;-53
2023/03/14 10:47:28;;;;;;;11.25;2.00;;;6.90;99.90;;;;;;4972595;28;20038;-51
2023/03/14 10:49:55;;;;;;;21.25;2.85;;;7.10;99.90;;;;;;4944973;28;20097;-55
2023/03/14 10:52:29;;;;;;;9.00;2.28;;;7.20;99.90;;;;;;4973813;28;20038;-52
2023/03/14 10:55:08;;;;;;;16.70;2.80;;;7.30;99.90;;;;;;4969916;28;20129;-52
2023/03/14 10:57:41;;;;;;;17.27;2.38;;;7.40;99.90;;;;;;4960065;28;20050;-50
2023/03/14 11:00:25;;;;;;;11.95;2.72;;;7.50;99.90;;;;;;4967446;28;20050;-49
2023/03/14 11:03:12;;;;;;;11.98;2.30;;;7.40;99.90;;;;;;4973997;28;20050;-53
2023/03/14 11:05:52;;;;;;;15.48;2.20;;;7.30;99.90;;;;;;4968451;28;20050;-51
2023/03/14 11:08:28;;;;;;;13.93;2.00;;;7.40;99.90;;;;;;4969314;28;20489;-52
2023/03/14 11:11:07;;;;;;;13.60;2.03;;;7.50;99.10;;;;;;4967072;28;20061;-53
2023/03/14 11:13:47;;;;;;;15.77;2.35;;;7.60;98.40;;;;;;4970980;28;20049;-48
2023/03/14 11:16:39;;;;;;;7.38;1.77;;;7.60;98.30;;;;;;4973114;28;20564;-54
2023/03/14 11:19:38;;;;;;;10.85;1.98;;;7.50;98.60;;;;;;4971943;28;20049;-51
2023/03/14 11:22:22;;;;;;;9.95;1.73;;;7.40;96.10;;;;;;4950651;28;20042;-52
2023/03/14 11:25:17;;;;;;;7.93;1.67;;;7.40;96.10;;;;;;4978163;28;20046;-52
2023/03/14 11:28:16;;;;;;;10.43;1.67;;;7.60;97.10;;;;;;4969463;28;20053;-53
2023/03/14 11:30:52;;;;;;;8.48;1.90;;;7.90;96.70;;;;;;4983736;28;20058;-54
2023/03/14 11:33:28;;;;;;;7.53;1.45;;;8.10;95.30;;;;;;4966504;28;20077;-54
2023/03/14 11:36:06;;;;;;;8.30;1.83;;;8.00;93.50;;;;;;4986212;28;20050;-52
2023/03/14 11:38:52;;;;;;;7.75;1.63;;;7.80;92.10;;;;;;4986087;28;20057;-51
2023/03/14 11:41:25;;;;;;;16.77;1.90;;;7.60;92.10;;;;;;4984709;28;20129;-52
2023/03/14 11:43:55;;;;;;;;;;;7.40;92.70;;;;;;4985669;28;20053;-53
2023/03/14 11:46:47;;;;;;;11.48;1.95;;;7.40;94.10;;;;;;4986414;28;19925;-53
2023/03/14 11:49:31;;;;;;;9.47;1.53;;;7.40;94.40;;;;;;4980899;28;20497;-51
2023/03/14 11:52:01;;;;;;;7.07;1.85;;;7.50;94.20;;;;;;4938007;28;20308;-49
2023/03/14 11:54:35;;;;;;;7.43;1.95;;;7.70;94.30;;;;;;4963426;28;20473;-51
2023/03/14 11:57:11;;;;;;;14.40;1.80;;;8.00;94.50;;;;;;4966270;28;20046;-49
2023/03/14 12:00:22;;;;;;;15.27;1.92;;;8.10;94.00;;;;;;4969549;28;20049;-52
2023/03/14 12:03:13;;;;;;;10.10;2.03;;;8.10;93.30;;;;;;4928750;28;20058;-50
2023/03/14 12:06:16;;;;;;;13.55;1.90;;;7.90;93.10;;;;;;4925961;28;20055;-54
2023/03/14 12:08:50;;;;;;;10.07;1.50;;;7.70;93.50;;;;;;4965250;28;20118;-54
2023/03/14 12:11:27;;;;;;;12.82;1.85;;;7.70;94.20;;;;;;4966456;28;20065;-54
2023/03/14 12:13:53;;;;;;;12.82;1.88;;;7.70;93.40;;;;;;4968669;28;20077;-54
2023/03/14 12:16:24;;;;;;;11.32;1.70;;;7.60;93.60;;;;;;4955167;28;20133;-49
2023/03/14 12:18:54;;;;;;;10.18;1.83;;;7.50;94.20;;;;;;4950121;28;21430;-54
2023/03/14 12:21:21;;;;;;;15.57;2.22;;;7.40;95.10;;;;;;4967203;28;20117;-51
2023/03/14 12:23:53;;;;;;;8.70;2.00;;;7.30;95.50;;;;;;4964982;28;20440;-49
2023/03/14 12:26:25;;;;;;;12.57;1.83;;;7.20;96.50;;;;;;4947424;28;20050;-50
2023/03/14 12:29:10;;;;;;;13.82;3.20;;;7.30;96.80;;;;;;4965956;28;20062;-52
2023/03/14 12:31:57;;;;;;;13.35;2.03;;;7.20;97.20;;;;;;4972178;28;20407;-52
2023/03/14 12:34:22;;;;;;;16.60;3.00;;;7.30;96.50;;;;;;4968922;28;20057;-52
2023/03/14 12:37:01;;;;;;;15.40;2.30;;;7.20;97.20;;;;;;4969140;28;20042;-51
2023/03/14 12:39:58;;;;;;;18.20;2.60;;;7.10;97.00;;;;;;4969790;28;20493;-50
2023/03/14 12:42:32;;;;;;;15.18;2.75;;;7.00;97.70;;;;;;4966785;28;20378;-54
2023/03/14 12:45:27;;;;;;;14.23;2.30;;;7.00;97.80;;;;;;4966757;28;21079;-50
2023/03/14 12:48:14;;;;;;;13.05;2.40;;;7.00;97.80;;;;;;4966246;28;20073;-52
2023/03/14 12:50:51;;;;;;;11.02;1.88;;;7.10;97.50;;;;;;4965313;28;20053;-55
2023/03/14 12:53:41;;;;;;;13.38;2.47;;;7.00;97.80;;;;;;4966551;28;20157;-52
2023/03/14 12:56:19;;;;;;;14.70;2.40;;;7.00;98.30;;;;;;4952539;28;20046;-54
2023/03/14 12:59:09;;;;;;;14.93;2.10;;;6.80;97.80;;;;;;4965390;28;20050;-55